createdAt,value
2019-04-21T00:00:25.949Z,6.99
2019-04-21T00:01:24.410Z,7.02
2019-04-21T00:02:30.735Z,7.07
2019-04-21T00:03:34.512Z,6.99
2019-04-21T00:04:40.822Z,7.02
2019-04-21T00:05:49.637Z,7.04
2019-04-21T00:06:48.141Z,6.97
2019-04-21T00:07:46.990Z,6.94
2019-04-21T00:09:09.819Z,7.01
2019-04-21T00:09:52.370Z,6.95
2019-04-21T00:10:48.223Z,6.90
2019-04-21T00:11:47.196Z,6.97
2019-04-21T00:12:40.597Z,6.80
2019-04-21T00:13:38.063Z,6.91
2019-04-21T00:14:40.969Z,6.97
2019-04-21T00:15:33.183Z,6.83
2019-04-21T00:16:35.689Z,6.90
2019-04-21T00:17:27.075Z,6.89
2019-04-21T00:18:25.390Z,6.99
2019-04-21T00:19:28.385Z,6.89
2019-04-21T00:20:35.263Z,6.90
2019-04-21T00:21:34.567Z,6.94
2019-04-21T00:22:40.508Z,6.84
2019-04-21T00:23:42.522Z,6.94
2019-04-21T00:24:39.073Z,6.91
2019-04-21T00:25:38.808Z,6.81
2019-04-21T00:26:45.737Z,6.89
2019-04-21T00:27:43.748Z,6.83
2019-04-21T00:28:58.142Z,6.77
2019-04-21T00:29:46.907Z,6.72
2019-04-21T00:30:47.052Z,6.73
2019-04-21T00:31:44.560Z,6.77
2019-04-21T00:32:35.580Z,6.76
2019-04-21T00:33:30.028Z,6.76
2019-04-21T00:34:25.725Z,6.77
2019-04-21T00:35:27.477Z,6.76
2019-04-21T00:36:37.822Z,6.80
2019-04-21T00:37:45.156Z,6.80
2019-04-21T00:38:51.375Z,6.80
2019-04-21T00:40:50.510Z,6.69
2019-04-21T00:41:43.727Z,6.61
2019-04-21T00:42:43.537Z,6.62
2019-04-21T00:43:41.273Z,6.56
2019-04-21T00:44:38.122Z,6.59
2019-04-21T00:45:39.251Z,6.59
2019-04-21T00:46:42.813Z,6.54
2019-04-21T00:47:38.789Z,6.50
2019-04-21T00:48:52.792Z,6.53
2019-04-21T00:49:45.383Z,6.53
2019-04-21T00:51:03.412Z,6.46
2019-04-21T00:52:00.279Z,6.40
2019-04-21T00:52:51.034Z,6.40
2019-04-21T00:53:56.076Z,6.41
2019-04-21T00:54:58.609Z,6.32
2019-04-21T00:56:07.225Z,6.32
2019-04-21T00:56:49.606Z,6.36
2019-04-21T00:57:51.415Z,6.32
2019-04-21T00:58:47.743Z,6.29
2019-04-21T00:59:46.397Z,6.36
2019-04-21T01:00:47.540Z,6.32
2019-04-21T01:01:43.678Z,6.33
2019-04-21T01:02:53.347Z,6.36
2019-04-21T01:03:55.127Z,6.40
2019-04-21T01:04:55.312Z,6.35
2019-04-21T01:05:51.842Z,6.29
2019-04-21T01:06:49.640Z,6.38
2019-04-21T01:07:46.884Z,6.32
2019-04-21T01:08:47.305Z,6.29
2019-04-21T01:09:42.688Z,6.33
2019-04-21T01:10:38.402Z,6.32
2019-04-21T01:11:51.919Z,6.38
2019-04-21T01:12:53.580Z,6.36
2019-04-21T01:13:53.349Z,6.30
2019-04-21T01:14:49.976Z,6.28
2019-04-21T01:15:49.015Z,6.32
2019-04-21T01:16:45.826Z,6.25
2019-04-21T01:17:46.037Z,6.28
2019-04-21T01:18:44.510Z,6.33
2019-04-21T01:19:39.799Z,6.25
2019-04-21T01:20:24.564Z,6.32
2019-04-21T01:21:23.559Z,6.36
2019-04-21T01:22:23.540Z,6.33
2019-04-21T01:23:23.533Z,6.33
2019-04-21T01:24:31.874Z,6.30
2019-04-21T01:25:33.049Z,6.36
2019-04-21T01:26:37.201Z,6.36
2019-04-21T01:27:45.676Z,6.30
2019-04-21T01:28:40.022Z,6.25
2019-04-21T01:29:51.340Z,6.22
2019-04-21T01:30:44.856Z,6.16
2019-04-21T01:31:42.616Z,6.19
2019-04-21T01:32:48.377Z,6.16
2019-04-21T01:33:48.369Z,6.13
2019-04-21T01:34:45.395Z,6.10
2019-04-21T01:35:44.179Z,6.09
2019-04-21T01:36:38.836Z,6.00
2019-04-21T01:37:49.628Z,6.03
2019-04-21T01:38:49.685Z,5.91
2019-04-21T01:39:48.188Z,5.96
2019-04-21T01:40:49.389Z,5.88
2019-04-21T01:41:45.032Z,5.81
2019-04-21T01:42:48.054Z,5.78
2019-04-21T01:43:42.762Z,5.89
2019-04-21T01:44:47.427Z,5.82
2019-04-21T01:45:44.795Z,5.70
2019-04-21T01:46:42.259Z,5.71
2019-04-21T01:47:40.507Z,5.64
2019-04-21T01:48:41.606Z,5.59
2019-04-21T01:49:34.752Z,5.64
2019-04-21T01:50:40.964Z,5.63
2019-04-21T01:51:50.706Z,5.53
2019-04-21T01:52:51.453Z,5.57
2019-04-21T01:53:53.445Z,5.59
2019-04-21T01:54:53.543Z,5.55
2019-04-21T01:55:43.147Z,5.52
2019-04-21T01:56:49.775Z,5.52
2019-04-21T01:57:42.619Z,5.45
2019-04-21T01:58:36.275Z,5.41
2019-04-21T01:59:33.466Z,5.41
2019-04-21T02:01:48.829Z,5.41
2019-04-21T02:02:47.713Z,5.41
2019-04-21T02:04:54.317Z,5.35
2019-04-21T02:05:55.289Z,5.37
2019-04-21T02:06:44.381Z,5.41
2019-04-21T02:07:44.773Z,5.41
2019-04-21T02:08:41.811Z,5.43
2019-04-21T02:09:46.348Z,5.32
2019-04-21T02:10:47.687Z,5.41
2019-04-21T02:11:53.383Z,5.40
2019-04-21T02:12:48.392Z,5.41
2019-04-21T02:13:53.773Z,5.41
2019-04-21T02:14:51.486Z,5.41
2019-04-21T02:15:52.771Z,5.45
2019-04-21T02:16:47.774Z,5.38
2019-04-21T02:17:49.420Z,5.35
2019-04-21T02:18:46.421Z,5.40
2019-04-21T02:19:35.998Z,5.37
2019-04-21T02:20:31.725Z,5.37
2019-04-21T02:21:39.275Z,5.30
2019-04-21T02:22:57.437Z,5.27
2019-04-21T02:24:07.137Z,5.22
2019-04-21T02:24:51.648Z,5.23
2019-04-21T02:25:47.154Z,5.31
2019-04-21T02:26:47.441Z,5.25
2019-04-21T02:27:42.950Z,5.20
2019-04-21T02:28:50.512Z,5.19
2019-04-21T02:29:48.724Z,5.13
2019-04-21T02:31:05.883Z,5.05
2019-04-21T02:31:57.081Z,4.94
2019-04-21T02:33:05.589Z,4.98
2019-04-21T02:33:58.302Z,4.95
2019-04-21T02:36:00.642Z,4.80
2019-04-21T02:37:13.223Z,4.84
2019-04-21T02:38:14.009Z,4.79
2019-04-21T02:39:08.276Z,4.77
2019-04-21T02:39:56.777Z,4.75
2019-04-21T02:40:49.520Z,4.77
2019-04-21T02:41:54.467Z,4.70
2019-04-21T02:44:02.594Z,4.73
2019-04-21T02:44:52.150Z,4.79
2019-04-21T02:45:56.169Z,4.69
2019-04-21T02:46:46.390Z,4.69
2019-04-21T02:48:09.689Z,4.73
2019-04-21T02:50:06.046Z,4.79
2019-04-21T02:52:02.892Z,4.79
2019-04-21T02:52:53.880Z,4.77
2019-04-21T02:55:51.228Z,4.79
2019-04-21T02:57:59.514Z,4.75
2019-04-21T02:59:03.106Z,4.73
2019-04-21T03:00:03.447Z,4.69
2019-04-21T03:01:01.059Z,4.64
2019-04-21T03:01:56.253Z,4.69
2019-04-21T03:03:01.070Z,4.65
2019-04-21T03:03:52.940Z,4.64
2019-04-21T03:04:53.147Z,4.58
2019-04-21T03:05:58.629Z,4.54
2019-04-21T03:07:01.568Z,4.51
2019-04-21T03:07:55.515Z,4.54
2019-04-21T03:09:08.816Z,4.51
2019-04-21T03:09:49.644Z,4.40
2019-04-21T03:11:08.930Z,4.36
2019-04-21T03:11:56.406Z,4.34
2019-04-21T03:12:52.980Z,4.37
2019-04-21T03:13:57.279Z,4.28
2019-04-21T03:15:59.814Z,4.25
2019-04-21T03:16:47.135Z,4.34
2019-04-21T03:17:56.843Z,4.22
2019-04-21T03:19:06.799Z,4.26
2019-04-21T03:20:14.626Z,4.28
2019-04-21T03:21:00.689Z,4.29
2019-04-21T03:22:02.609Z,4.33
2019-04-21T03:23:00.318Z,4.22
2019-04-21T03:23:58.102Z,4.28
2019-04-21T03:25:23.509Z,4.25
2019-04-21T03:25:52.388Z,4.24
2019-04-21T03:27:12.637Z,4.34
2019-04-21T03:29:12.056Z,4.28
2019-04-21T03:30:01.013Z,4.28
2019-04-21T03:31:32.116Z,4.29
2019-04-21T03:32:28.502Z,4.25
2019-04-21T03:33:23.892Z,4.19
2019-04-21T03:34:28.958Z,4.25
2019-04-21T03:35:32.697Z,4.21
2019-04-21T03:37:10.780Z,4.24
2019-04-21T03:37:53.019Z,4.32
2019-04-21T03:38:46.151Z,4.24
2019-04-21T03:40:07.511Z,4.28
2019-04-21T03:40:47.125Z,4.26
2019-04-21T03:41:57.511Z,4.25
2019-04-21T03:43:12.478Z,4.28
2019-04-21T03:43:59.204Z,4.33
2019-04-21T03:45:49.257Z,4.29
2019-04-21T03:47:55.239Z,4.24
2019-04-21T03:48:54.001Z,4.24
2019-04-21T03:50:04.773Z,4.26
2019-04-21T03:50:47.198Z,4.32
2019-04-21T03:51:55.366Z,4.32
2019-04-21T03:53:53.989Z,4.25
2019-04-21T03:54:53.794Z,4.22
2019-04-21T03:55:53.197Z,4.25
2019-04-21T03:59:56.235Z,4.16
2019-04-21T04:02:03.891Z,4.22
2019-04-21T04:03:13.423Z,4.24
2019-04-21T04:04:52.998Z,4.24
2019-04-21T04:06:13.387Z,4.16
2019-04-21T04:08:01.371Z,4.12
2019-04-21T04:09:06.389Z,4.12
2019-04-21T04:10:08.445Z,4.15
2019-04-21T04:11:04.639Z,4.18
2019-04-21T04:11:53.143Z,4.12
2019-04-21T04:12:57.736Z,4.22
2019-04-21T04:14:03.461Z,4.21
2019-04-21T04:15:56.568Z,4.25
2019-04-21T04:17:06.138Z,4.26
2019-04-21T04:18:07.807Z,4.22
2019-04-21T04:20:51.259Z,4.33
2019-04-21T04:22:56.347Z,4.32
2019-04-21T04:23:58.036Z,4.40
2019-04-21T04:24:57.891Z,4.43
2019-04-21T04:25:53.231Z,4.36
2019-04-21T04:27:59.473Z,4.40
2019-04-21T04:29:01.312Z,4.34
2019-04-21T04:29:50.684Z,4.34
2019-04-21T04:30:52.775Z,4.34
2019-04-21T04:32:53.687Z,4.34
2019-04-21T04:34:57.306Z,4.47
2019-04-21T04:36:01.398Z,4.44
2019-04-21T04:37:56.823Z,4.50
2019-04-21T04:39:02.691Z,4.64
2019-04-21T04:40:10.532Z,4.72
2019-04-21T04:40:59.643Z,4.80
2019-04-21T04:44:04.902Z,5.16
2019-04-21T04:47:05.519Z,5.70
2019-04-21T04:47:59.945Z,5.88
2019-04-21T04:48:51.353Z,5.95
2019-04-21T04:50:17.769Z,6.03
2019-04-21T04:50:53.588Z,6.09
2019-04-21T04:52:08.644Z,6.10
2019-04-21T04:53:47.270Z,6.28
2019-04-21T04:54:53.029Z,6.33
2019-04-21T04:57:03.209Z,6.59
2019-04-21T04:59:19.343Z,6.76
2019-04-21T05:00:01.783Z,6.76
2019-04-21T05:01:08.194Z,6.79
2019-04-21T05:02:00.208Z,6.80
2019-04-21T05:02:55.926Z,6.90
2019-04-21T05:04:05.940Z,6.87
2019-04-21T05:05:09.177Z,6.95
2019-04-21T05:06:05.168Z,7.31
2019-04-21T05:07:03.531Z,7.94
2019-04-21T05:09:52.530Z,11.03
2019-04-21T05:12:50.727Z,12.89
2019-04-21T05:13:54.984Z,13.33
2019-04-21T05:14:53.368Z,13.84
2019-04-21T05:15:55.820Z,13.56
2019-04-21T05:17:08.633Z,13.11
2019-04-21T05:17:50.645Z,13.47
2019-04-21T05:20:03.651Z,14.21
2019-04-21T05:20:52.256Z,14.80
2019-04-21T05:21:48.341Z,15.19
2019-04-21T05:22:42.284Z,15.23
2019-04-21T05:23:44.177Z,14.80
2019-04-21T05:24:37.724Z,14.65
2019-04-21T05:25:37.735Z,15.21
2019-04-21T05:26:42.271Z,15.59
2019-04-21T05:27:39.692Z,15.63
2019-04-21T05:28:36.936Z,15.19
2019-04-21T05:29:49.616Z,14.04
2019-04-21T05:30:52.846Z,13.38
2019-04-21T05:31:47.674Z,13.09
2019-04-21T05:32:45.218Z,13.33
2019-04-21T05:33:45.993Z,14.24
2019-04-21T05:34:42.613Z,14.31
2019-04-21T05:35:41.824Z,13.91
2019-04-21T05:36:45.483Z,13.15
2019-04-21T05:37:43.735Z,12.64
2019-04-21T05:38:39.249Z,12.37
2019-04-21T05:39:37.516Z,12.09
2019-04-21T05:40:35.867Z,11.70
2019-04-21T05:41:31.309Z,11.35
2019-04-21T05:42:44.435Z,11.19
2019-04-21T05:43:39.171Z,10.98
2019-04-21T05:44:56.776Z,10.81
2019-04-21T05:45:47.453Z,10.56
2019-04-21T05:46:49.205Z,10.58
2019-04-21T05:47:46.280Z,10.46
2019-04-21T05:48:46.936Z,10.39
2019-04-21T05:49:38.778Z,10.40
2019-04-21T05:50:40.113Z,10.60
2019-04-21T05:51:41.963Z,11.20
2019-04-21T05:52:38.389Z,11.77
2019-04-21T05:53:42.475Z,12.88
2019-04-21T05:54:52.318Z,13.99
2019-04-21T05:56:42.400Z,15.54
2019-04-21T05:57:43.143Z,16.00
2019-04-21T05:58:45.020Z,16.41
2019-04-21T05:59:43.605Z,16.86
2019-04-21T06:00:59.441Z,17.26
2019-04-21T06:01:50.343Z,17.07
2019-04-21T06:02:56.044Z,17.59
2019-04-21T06:05:53.330Z,18.49
2019-04-21T06:06:47.767Z,19.29
2019-04-21T06:07:42.720Z,19.55
2019-04-21T06:08:48.135Z,19.84
2019-04-21T06:09:52.375Z,19.76
2019-04-21T06:10:47.379Z,19.21
2019-04-21T06:11:45.768Z,19.01
2019-04-21T06:12:54.798Z,18.90
2019-04-21T06:13:48.176Z,19.02
2019-04-21T06:14:49.527Z,18.74
2019-04-21T06:15:51.302Z,18.94
2019-04-21T06:16:53.958Z,18.86
2019-04-21T06:17:44.641Z,18.68
2019-04-21T06:18:47.980Z,18.99
2019-04-21T06:19:52.663Z,19.76
2019-04-21T06:20:46.791Z,20.41
2019-04-21T06:21:40.519Z,20.90
2019-04-21T06:22:46.544Z,20.99
2019-04-21T06:23:42.367Z,20.86
2019-04-21T06:24:54.583Z,20.12
2019-04-21T06:25:54.593Z,20.09
2019-04-21T06:27:05.414Z,20.51
2019-04-21T06:27:46.094Z,19.90
2019-04-21T06:28:46.966Z,20.43
2019-04-21T06:29:45.207Z,20.51
2019-04-21T06:30:54.972Z,20.54
2019-04-21T06:32:16.304Z,20.81
2019-04-21T06:32:52.820Z,21.34
2019-04-21T06:33:44.624Z,21.42
2019-04-21T06:35:00.223Z,20.56
2019-04-21T06:36:00.709Z,20.89
2019-04-21T06:36:43.330Z,20.95
2019-04-21T06:37:56.811Z,21.01
2019-04-21T06:38:54.413Z,20.87
2019-04-21T06:40:01.716Z,20.51
2019-04-21T06:40:48.412Z,19.91
2019-04-21T06:41:39.504Z,20.39
2019-04-21T06:42:53.975Z,19.88
2019-04-21T06:43:54.863Z,19.90
2019-04-21T06:44:54.547Z,20.56
2019-04-21T06:45:50.719Z,20.99
2019-04-21T06:46:39.279Z,21.23
2019-04-21T06:47:51.401Z,20.47
2019-04-21T06:48:53.680Z,20.43
2019-04-21T06:49:45.800Z,20.18
2019-04-21T06:50:46.736Z,19.73
2019-04-21T06:51:44.841Z,19.42
2019-04-21T06:53:56.030Z,18.90
2019-04-21T06:54:50.754Z,19.08
2019-04-21T06:55:46.755Z,19.33
2019-04-21T06:57:44.465Z,20.39
2019-04-21T06:58:42.877Z,20.56
2019-04-21T06:59:41.861Z,20.99
2019-04-21T07:00:43.197Z,21.63
2019-04-21T07:03:53.489Z,23.20
2019-04-21T07:04:48.113Z,22.47
2019-04-21T07:05:51.403Z,21.44
2019-04-21T07:07:50.497Z,21.95
2019-04-21T07:08:56.617Z,21.64
2019-04-21T07:09:46.682Z,22.01
2019-04-21T07:10:48.776Z,22.38
2019-04-21T07:11:38.861Z,22.72
2019-04-21T07:12:43.536Z,22.39
2019-04-21T07:13:41.622Z,21.48
2019-04-21T07:14:44.124Z,20.96
2019-04-21T07:15:48.933Z,21.38
2019-04-21T07:16:44.992Z,21.90
2019-04-21T07:17:42.636Z,21.27
2019-04-21T07:18:53.422Z,20.56
2019-04-21T07:19:49.116Z,20.47
2019-04-21T07:20:44.914Z,20.51
2019-04-21T07:21:45.778Z,20.21
2019-04-21T07:22:42.809Z,20.24
2019-04-21T07:23:47.288Z,20.51
2019-04-21T07:24:43.442Z,21.08
2019-04-21T07:25:45.531Z,21.20
2019-04-21T07:26:44.501Z,20.90
2019-04-21T07:27:59.330Z,20.79
2019-04-21T07:28:54.442Z,20.27
2019-04-21T07:29:50.602Z,19.57
2019-04-21T07:30:48.748Z,19.28
2019-04-21T07:31:47.048Z,19.02
2019-04-21T07:32:49.719Z,18.42
2019-04-21T07:33:53.787Z,18.44
2019-04-21T07:34:46.165Z,18.54
2019-04-21T07:35:49.174Z,18.39
2019-04-21T07:36:52.578Z,18.49
2019-04-21T07:37:41.337Z,18.44
2019-04-21T07:38:41.058Z,18.46
2019-04-21T07:39:40.258Z,18.29
2019-04-21T07:40:33.680Z,18.00
2019-04-21T07:41:42.176Z,18.00
2019-04-21T07:42:40.062Z,17.92
2019-04-21T07:43:34.192Z,17.85
2019-04-21T07:44:35.234Z,17.76
2019-04-21T07:45:36.738Z,17.64
2019-04-21T07:46:36.606Z,17.59
2019-04-21T07:47:44.504Z,16.89
2019-04-21T07:48:43.151Z,16.77
2019-04-21T07:49:47.880Z,16.99
2019-04-21T07:50:31.502Z,17.22
2019-04-21T07:51:45.952Z,16.90
2019-04-21T07:52:47.022Z,16.63
2019-04-21T07:53:51.021Z,16.45
2019-04-21T07:54:44.415Z,16.34
2019-04-21T07:56:28.335Z,16.52
2019-04-21T07:57:36.724Z,16.73
2019-04-21T07:58:47.644Z,16.78
2019-04-21T07:59:52.240Z,16.78
2019-04-21T08:00:51.311Z,16.62
2019-04-21T08:01:39.513Z,16.60
2019-04-21T08:02:40.279Z,16.74
2019-04-21T08:03:43.839Z,16.93
2019-04-21T08:04:55.851Z,17.15
2019-04-21T08:05:58.477Z,17.26
2019-04-21T08:06:43.795Z,17.20
2019-04-21T08:07:54.284Z,16.98
2019-04-21T08:08:44.311Z,17.00
2019-04-21T08:09:40.961Z,16.93
2019-04-21T08:10:40.848Z,16.86
2019-04-21T08:11:36.722Z,16.95
2019-04-21T08:12:40.757Z,16.89
2019-04-21T08:13:44.953Z,17.03
2019-04-21T08:14:48.280Z,17.03
2019-04-21T08:15:39.547Z,16.99
2019-04-21T08:16:45.089Z,17.04
2019-04-21T08:17:41.418Z,16.99
2019-04-21T08:18:39.327Z,17.03
2019-04-21T08:19:36.924Z,17.07
2019-04-21T08:20:35.867Z,16.96
2019-04-21T08:21:43.010Z,16.96
2019-04-21T08:22:46.791Z,16.98
2019-04-21T08:23:40.236Z,17.03
2019-04-21T08:24:46.765Z,16.96
2019-04-21T08:25:45.943Z,17.14
2019-04-21T08:26:44.609Z,17.23
2019-04-21T08:27:50.560Z,17.35
2019-04-21T08:28:42.688Z,17.35
2019-04-21T08:29:45.972Z,17.46
2019-04-21T08:30:54.258Z,17.44
2019-04-21T08:31:50.034Z,17.53
2019-04-21T08:33:00.521Z,17.55
2019-04-21T08:34:49.639Z,17.62
2019-04-21T08:36:40.699Z,17.69
2019-04-21T08:37:37.080Z,17.74
2019-04-21T08:38:42.639Z,17.97
2019-04-21T08:39:49.757Z,18.10
2019-04-21T08:40:57.515Z,18.31
2019-04-21T08:41:41.132Z,18.42
2019-04-21T08:42:38.263Z,18.39
2019-04-21T08:43:42.653Z,18.28
2019-04-21T08:44:40.290Z,18.21
2019-04-21T08:45:45.339Z,18.13
2019-04-21T08:46:40.579Z,18.04
2019-04-21T08:47:39.624Z,18.27
2019-04-21T08:48:42.304Z,18.47
2019-04-21T08:49:41.308Z,18.57
2019-04-21T08:50:37.288Z,18.54
2019-04-21T08:51:41.280Z,18.80
2019-04-21T08:52:49.260Z,18.86
2019-04-21T08:53:42.746Z,18.94
2019-04-21T08:54:43.536Z,19.06
2019-04-21T08:55:41.985Z,19.20
2019-04-21T08:56:40.154Z,19.02
2019-04-21T08:57:50.747Z,18.74
2019-04-21T08:58:42.547Z,18.72
2019-04-21T08:59:36.357Z,18.64
2019-04-21T09:00:38.952Z,18.68
2019-04-21T09:01:43.461Z,18.77
2019-04-21T09:02:40.408Z,19.05
2019-04-21T09:03:43.407Z,19.05
2019-04-21T09:04:33.916Z,18.97
2019-04-21T09:05:41.143Z,18.79
2019-04-21T09:06:57.165Z,18.68
2019-04-21T09:07:41.692Z,18.59
2019-04-21T09:08:44.430Z,18.67
2019-04-21T09:09:44.400Z,18.65
2019-04-21T09:10:41.002Z,18.47
2019-04-21T09:11:38.301Z,18.42
2019-04-21T09:12:38.826Z,18.49
2019-04-21T09:13:36.964Z,18.62
2019-04-21T09:14:36.501Z,18.43
2019-04-21T09:15:35.111Z,18.42
2019-04-21T09:16:35.171Z,18.62
2019-04-21T09:17:32.845Z,18.67
2019-04-21T09:18:32.505Z,18.86
2019-04-21T09:19:51.887Z,18.98
2019-04-21T09:21:38.978Z,19.08
2019-04-21T09:22:37.702Z,19.39
2019-04-21T09:23:39.184Z,19.47
2019-04-21T09:24:42.813Z,19.43
2019-04-21T09:25:40.709Z,19.57
2019-04-21T09:26:35.605Z,19.68
2019-04-21T09:27:38.998Z,19.50
2019-04-21T09:28:36.986Z,19.25
2019-04-21T09:29:28.668Z,19.39
2019-04-21T09:30:19.805Z,19.51
2019-04-21T09:31:23.935Z,19.36
2019-04-21T09:32:23.877Z,19.08
2019-04-21T09:33:20.749Z,18.94
2019-04-21T09:34:24.931Z,18.95
2019-04-21T09:35:21.927Z,19.01
2019-04-21T09:36:21.660Z,19.06
2019-04-21T09:37:33.029Z,19.40
2019-04-21T09:38:27.614Z,19.70
2019-04-21T09:39:22.621Z,19.93
2019-04-21T09:40:29.098Z,20.05
2019-04-21T09:41:22.799Z,20.30
2019-04-21T09:42:20.167Z,20.53
2019-04-21T09:43:25.660Z,20.38
2019-04-21T09:44:25.971Z,20.30
2019-04-21T09:45:22.445Z,20.21
2019-04-21T09:46:18.551Z,20.42
2019-04-21T09:47:22.878Z,20.59
2019-04-21T09:48:22.189Z,20.38
2019-04-21T09:49:22.456Z,20.34
2019-04-21T09:50:19.838Z,20.53
2019-04-21T09:51:18.187Z,20.28
2019-04-21T09:52:20.904Z,20.12
2019-04-21T09:53:28.739Z,19.93
2019-04-21T09:54:24.771Z,20.05
2019-04-21T09:55:22.810Z,19.88
2019-04-21T09:56:31.383Z,19.78
2019-04-21T09:57:30.034Z,20.02
2019-04-21T09:58:26.342Z,20.00
2019-04-21T09:59:26.195Z,20.15
2019-04-21T10:00:24.479Z,20.25
2019-04-21T10:01:26.782Z,20.54
2019-04-21T10:02:32.469Z,20.68
2019-04-21T10:03:20.816Z,20.87
2019-04-21T10:04:18.699Z,21.19
2019-04-21T10:05:19.105Z,21.44
2019-04-21T10:06:19.571Z,21.26
2019-04-21T10:07:26.344Z,21.16
2019-04-21T10:08:19.012Z,21.14
2019-04-21T10:09:21.255Z,21.13
2019-04-21T10:10:19.145Z,20.96
2019-04-21T10:11:20.504Z,20.89
2019-04-21T10:12:17.960Z,20.83
2019-04-21T10:13:18.000Z,20.74
2019-04-21T10:14:17.937Z,20.76
2019-04-21T10:15:19.115Z,21.09
2019-04-21T10:16:17.919Z,21.21
2019-04-21T10:17:17.906Z,21.46
2019-04-21T10:18:17.905Z,21.09
2019-04-21T10:19:17.889Z,20.79
2019-04-21T10:20:17.874Z,20.68
2019-04-21T10:21:17.877Z,20.79
2019-04-21T10:22:19.030Z,20.99
2019-04-21T10:23:17.902Z,21.35
2019-04-21T10:24:18.070Z,21.53
2019-04-21T10:25:18.671Z,21.76
2019-04-21T10:26:18.782Z,21.90
2019-04-21T10:27:18.911Z,21.99
2019-04-21T10:28:18.978Z,22.16
2019-04-21T10:29:24.303Z,22.20
2019-04-21T10:30:18.768Z,22.20
2019-04-21T10:31:18.527Z,22.28
2019-04-21T10:32:21.311Z,21.75
2019-04-21T10:33:18.571Z,21.81
2019-04-21T10:34:19.048Z,21.99
2019-04-21T10:35:20.732Z,22.12
2019-04-21T10:36:17.706Z,21.82
2019-04-21T10:37:18.794Z,21.74
2019-04-21T10:38:29.217Z,21.76
2019-04-21T10:39:19.855Z,21.76
2019-04-21T10:40:18.058Z,21.69
2019-04-21T10:41:17.657Z,21.60
2019-04-21T10:42:17.645Z,21.54
2019-04-21T10:43:20.672Z,21.26
2019-04-21T10:44:18.934Z,21.20
2019-04-21T10:45:18.903Z,21.35
2019-04-21T10:46:17.601Z,21.38
2019-04-21T10:47:18.611Z,21.36
2019-04-21T10:48:18.827Z,21.14
2019-04-21T10:49:18.906Z,20.99
2019-04-21T10:50:18.398Z,20.87
2019-04-21T10:51:17.549Z,20.76
2019-04-21T10:52:17.558Z,20.83
2019-04-21T10:53:18.694Z,21.02
2019-04-21T10:54:17.923Z,21.21
2019-04-21T10:55:36.762Z,21.45
2019-04-21T10:56:27.422Z,21.66
2019-04-21T10:57:18.486Z,21.71
2019-04-21T10:58:18.332Z,22.01
2019-04-21T10:59:18.352Z,22.12
2019-04-21T11:00:18.727Z,22.23
2019-04-21T11:01:18.833Z,22.41
2019-04-21T11:02:17.449Z,22.54
2019-04-21T11:03:17.422Z,22.39
2019-04-21T11:04:23.663Z,22.37
2019-04-21T11:05:18.817Z,22.14
2019-04-21T11:06:18.775Z,22.12
2019-04-21T11:07:19.575Z,21.79
2019-04-21T11:08:24.623Z,21.42
2019-04-21T11:09:18.365Z,21.34
2019-04-21T11:10:18.300Z,21.41
2019-04-21T11:11:17.339Z,21.59
2019-04-21T11:12:17.617Z,21.57
2019-04-21T11:13:18.754Z,21.66
2019-04-21T11:14:17.841Z,21.57
2019-04-21T11:15:17.296Z,21.78
2019-04-21T11:16:17.373Z,21.94
2019-04-21T11:17:18.221Z,21.66
2019-04-21T11:18:17.757Z,21.61
2019-04-21T11:19:17.995Z,21.74
2019-04-21T11:20:17.358Z,21.71
2019-04-21T11:21:18.665Z,21.56
2019-04-21T11:22:17.224Z,21.46
2019-04-21T11:23:19.579Z,21.60
2019-04-21T11:24:18.114Z,21.75
2019-04-21T11:25:17.856Z,21.95
2019-04-21T11:26:18.067Z,22.10
2019-04-21T11:27:17.169Z,22.06
2019-04-21T11:28:17.160Z,21.94
2019-04-21T11:29:17.173Z,21.76
2019-04-21T11:30:17.792Z,21.63
2019-04-21T11:31:18.685Z,21.71
2019-04-21T11:32:17.117Z,21.69
2019-04-21T11:33:17.392Z,21.48
2019-04-21T11:34:17.096Z,21.36
2019-04-21T11:35:17.199Z,21.06
2019-04-21T11:36:17.438Z,21.20
2019-04-21T11:37:17.065Z,21.34
2019-04-21T11:38:20.420Z,21.35
2019-04-21T11:39:28.734Z,21.36
2019-04-21T11:40:19.933Z,21.35
2019-04-21T11:41:18.020Z,21.42
2019-04-21T11:42:17.607Z,21.36
2019-04-21T11:43:17.787Z,21.21
2019-04-21T11:44:18.295Z,21.13
2019-04-21T11:45:16.990Z,21.16
2019-04-21T11:46:18.223Z,20.86
2019-04-21T11:47:18.497Z,20.90
2019-04-21T11:48:16.948Z,21.04
2019-04-21T11:49:17.969Z,20.90
2019-04-21T11:50:17.101Z,21.16
2019-04-21T11:51:17.195Z,21.13
2019-04-21T11:52:16.907Z,21.01
2019-04-21T11:53:16.990Z,21.09
2019-04-21T11:54:17.084Z,21.04
2019-04-21T11:55:16.883Z,20.98
2019-04-21T11:56:16.997Z,20.74
2019-04-21T11:57:22.727Z,20.99
2019-04-21T11:58:18.151Z,21.16
2019-04-21T11:59:17.507Z,21.26
2019-04-21T12:00:17.646Z,21.32
2019-04-21T12:01:17.957Z,21.36
2019-04-21T12:02:17.341Z,21.27
2019-04-21T12:03:17.396Z,20.95
2019-04-21T12:04:17.971Z,21.04
2019-04-21T12:05:17.312Z,21.23
2019-04-21T12:06:17.467Z,21.41
2019-04-21T12:07:17.526Z,21.48
2019-04-21T12:08:26.063Z,21.59
2019-04-21T12:09:18.937Z,21.72
2019-04-21T12:10:17.676Z,21.83
2019-04-21T12:11:17.758Z,21.91
2019-04-21T12:12:17.001Z,21.92
2019-04-21T12:13:16.685Z,21.97
2019-04-21T12:14:16.676Z,22.07
2019-04-21T12:15:16.787Z,21.95
2019-04-21T12:16:16.992Z,21.72
2019-04-21T12:17:16.644Z,21.79
2019-04-21T12:18:17.828Z,21.74
2019-04-21T12:19:16.812Z,21.63
2019-04-21T12:20:16.805Z,21.56
2019-04-21T12:21:16.606Z,21.50
2019-04-21T12:22:22.245Z,21.36
2019-04-21T12:23:18.389Z,21.45
2019-04-21T12:24:17.390Z,21.60
2019-04-21T12:25:16.572Z,21.63
2019-04-21T12:26:17.925Z,21.74
2019-04-21T12:27:16.538Z,22.07
2019-04-21T12:28:17.425Z,22.06
2019-04-21T12:29:16.746Z,21.98
2019-04-21T12:30:17.715Z,22.01
2019-04-21T12:31:17.799Z,22.06
2019-04-21T12:32:16.489Z,22.09
2019-04-21T12:33:16.483Z,22.23
2019-04-21T12:34:16.465Z,22.13
2019-04-21T12:35:17.621Z,21.99
2019-04-21T12:36:17.769Z,21.83
2019-04-21T12:37:17.063Z,21.82
2019-04-21T12:38:27.993Z,21.81
2019-04-21T12:39:18.646Z,21.98
2019-04-21T12:40:16.848Z,21.88
2019-04-21T12:41:16.415Z,21.76
2019-04-21T12:42:16.651Z,21.71
2019-04-21T12:43:16.809Z,21.74
2019-04-21T12:44:16.359Z,21.90
2019-04-21T12:45:17.397Z,21.81
2019-04-21T12:46:16.345Z,22.04
2019-04-21T12:47:16.344Z,22.07
2019-04-21T12:48:16.321Z,22.01
2019-04-21T12:49:16.309Z,21.90
2019-04-21T12:50:17.028Z,21.81
2019-04-21T12:51:17.552Z,21.88
2019-04-21T12:52:17.634Z,21.91
2019-04-21T12:53:17.867Z,21.99
2019-04-21T12:54:17.543Z,21.88
2019-04-21T12:55:17.579Z,21.81
2019-04-21T12:56:16.247Z,21.78
2019-04-21T12:57:17.136Z,21.76
2019-04-21T12:58:17.284Z,21.72
2019-04-21T12:59:16.952Z,21.76
2019-04-21T13:00:16.191Z,21.88
2019-04-21T13:01:16.740Z,21.94
2019-04-21T13:02:16.173Z,21.92
2019-04-21T13:03:17.425Z,21.95
2019-04-21T13:04:16.155Z,21.95
2019-04-21T13:05:16.138Z,21.99
2019-04-21T13:06:16.135Z,22.09
2019-04-21T13:07:17.306Z,22.12
2019-04-21T13:08:17.564Z,22.27
2019-04-21T13:09:18.715Z,22.25
2019-04-21T13:10:16.214Z,22.14
2019-04-21T13:11:17.139Z,22.14
2019-04-21T13:12:17.208Z,22.20
2019-04-21T13:13:16.055Z,22.28
2019-04-21T13:14:16.040Z,22.25
2019-04-21T13:15:16.029Z,22.23
2019-04-21T13:16:16.033Z,22.37
2019-04-21T13:17:17.227Z,22.37
2019-04-21T13:18:16.444Z,22.31
2019-04-21T13:19:15.986Z,22.37
2019-04-21T13:20:17.058Z,22.31
2019-04-21T13:21:16.145Z,22.38
2019-04-21T13:22:16.182Z,22.28
2019-04-21T13:23:16.761Z,22.34
2019-04-21T13:24:16.060Z,22.34
2019-04-21T13:25:16.076Z,22.44
2019-04-21T13:26:27.140Z,22.47
2019-04-21T13:27:17.777Z,22.50
2019-04-21T13:28:16.564Z,22.53
2019-04-21T13:29:16.489Z,22.53
2019-04-21T13:30:15.868Z,22.60
2019-04-21T13:31:16.151Z,22.64
2019-04-21T13:32:16.351Z,22.56
2019-04-21T13:33:15.849Z,22.34
2019-04-21T13:34:15.977Z,22.32
2019-04-21T13:35:17.058Z,22.32
2019-04-21T13:36:15.875Z,22.23
2019-04-21T13:37:17.239Z,21.94
2019-04-21T13:38:24.499Z,21.90
2019-04-21T13:39:48.799Z,21.95
2019-04-21T13:40:34.200Z,21.91
2019-04-21T13:41:29.784Z,22.09
2019-04-21T13:42:25.847Z,21.97
2019-04-21T13:43:17.065Z,22.04
2019-04-21T13:44:17.629Z,22.06
2019-04-21T13:45:16.293Z,21.99
2019-04-21T13:46:15.696Z,21.91
2019-04-21T13:47:16.783Z,22.02
2019-04-21T13:48:16.820Z,22.04
2019-04-21T13:49:17.060Z,22.13
2019-04-21T13:50:15.656Z,22.12
2019-04-21T13:51:15.644Z,22.10
2019-04-21T13:52:15.641Z,22.04
2019-04-21T13:53:16.656Z,21.99
2019-04-21T13:54:15.770Z,21.91
2019-04-21T13:55:15.912Z,21.90